Time;durP1;ratioP1;P1;durP2;ratioP2;P2;SDS_P1;SDS_P2;PMS_P1;PMS_P2;Temp;Humidity;BMP_temperature;BMP_pressure;BME280_temperature;BME280_humidity;BME280_pressure;Samples;Min_cycle;Max_cycle;Signal;HPM_P1;HPM_P2
2024/03/14 00:02:19;;;;;;;11.73;5.23;;;;;;;10.44;100.00;96348.19;5025348;28;20707;-69
2024/03/14 00:04:46;;;;;;;9.60;4.67;;;;;;;10.43;100.00;96351.81;5023521;28;20359;-69
2024/03/14 00:07:14;;;;;;;12.53;5.30;;;;;;;10.45;100.00;96344.56;5022855;28;20205;-69
2024/03/14 00:09:41;;;;;;;11.60;5.33;;;;;;;10.35;100.00;96345.78;5021870;28;20229;-69
2024/03/14 00:12:08;;;;;;;9.23;4.77;;;;;;;10.32;100.00;96354.00;5021900;28;20847;-69
2024/03/14 00:14:35;;;;;;;11.03;5.20;;;;;;;10.36;100.00;96344.75;5024422;28;20231;-68
2024/03/14 00:17:01;;;;;;;10.67;5.47;;;;;;;10.32;100.00;96343.47;5021224;28;20212;-69
2024/03/14 00:19:28;;;;;;;11.43;5.20;;;;;;;10.31;100.00;96346.28;5023523;28;20205;-69
2024/03/14 00:21:56;;;;;;;10.03;5.13;;;;;;;10.31;100.00;96335.75;5021269;28;20220;-69
2024/03/14 00:24:23;;;;;;;11.73;5.43;;;;;;;10.24;100.00;96335.63;5027270;28;20633;-69
2024/03/14 00:26:49;;;;;;;12.60;5.53;;;;;;;10.26;100.00;96327.53;5020544;28;20205;-69
2024/03/14 00:29:16;;;;;;;10.77;4.90;;;;;;;10.29;100.00;96329.84;5018707;28;20201;-69
2024/03/14 00:31:43;;;;;;;16.70;5.20;;;;;;;10.30;100.00;96329.66;5020837;28;20773;-69
2024/03/14 00:34:09;;;;;;;13.20;5.47;;;;;;;10.24;100.00;96327.72;5020826;28;20441;-69
2024/03/14 00:36:37;;;;;;;13.33;5.63;;;;;;;10.09;100.00;96326.00;5018098;28;20616;-68
2024/03/14 00:39:06;;;;;;;12.03;5.53;;;;;;;10.18;100.00;96333.66;5019300;28;20212;-69
2024/03/14 00:41:33;;;;;;;13.17;5.30;;;;;;;10.15;100.00;96334.03;5019124;28;20296;-69
2024/03/14 00:44:00;;;;;;;11.23;5.77;;;;;;;10.14;100.00;96329.75;5020769;28;20221;-68
2024/03/14 00:46:26;;;;;;;12.43;6.00;;;;;;;10.15;100.00;96330.59;5020667;28;20239;-69
2024/03/14 00:48:53;;;;;;;15.93;6.20;;;;;;;10.00;100.00;96327.81;5021387;28;20575;-69
2024/03/14 00:51:19;;;;;;;12.87;5.60;;;;;;;10.10;100.00;96327.63;5017894;28;20201;-69
2024/03/14 00:53:46;;;;;;;10.43;5.23;;;;;;;9.96;100.00;96315.19;5017582;28;20248;-69
2024/03/14 00:56:13;;;;;;;13.07;5.63;;;;;;;9.99;100.00;96318.31;5018805;28;20262;-69
2024/03/14 00:58:40;;;;;;;10.80;5.07;;;;;;;10.01;100.00;96315.50;5020310;28;21221;-69
2024/03/14 01:01:07;;;;;;;9.73;4.60;;;;;;;9.68;100.00;96322.66;5017538;28;20216;-70
2024/03/14 01:03:34;;;;;;;10.33;4.67;;;;;;;9.72;100.00;96313.47;5019347;28;20205;-69
2024/03/14 01:06:01;;;;;;;11.80;5.33;;;;;;;9.86;100.00;96318.00;5017997;28;20566;-69
2024/03/14 01:08:27;;;;;;;9.87;5.13;;;;;;;9.93;100.00;96311.06;5019588;28;20709;-69
2024/03/14 01:10:54;;;;;;;12.37;4.93;;;;;;;9.97;100.00;96307.13;5018572;28;20233;-69
2024/03/14 01:13:21;;;;;;;11.53;5.20;;;;;;;9.75;100.00;96307.84;5017995;28;20244;-69
2024/03/14 01:15:48;;;;;;;10.60;4.70;;;;;;;9.58;100.00;96315.13;5017014;28;20615;-69
2024/03/14 01:18:14;;;;;;;8.20;4.20;;;;;;;9.72;100.00;96308.19;5018005;28;20480;-69
2024/03/14 01:20:41;;;;;;;9.87;3.80;;;;;;;9.72;100.00;96310.00;5017850;28;20739;-69
2024/03/14 01:23:08;;;;;;;10.63;4.60;;;;;;;9.73;100.00;96309.81;5017788;28;20205;-69
2024/03/14 01:25:35;;;;;;;9.73;5.10;;;;;;;9.87;100.00;96310.94;5019455;28;20248;-69
2024/03/14 01:28:01;;;;;;;9.93;4.63;;;;;;;9.89;100.00;96301.88;5018251;28;20209;-69
2024/03/14 01:30:28;;;;;;;12.53;5.53;;;;;;;9.69;100.00;96305.06;5017323;28;20211;-68
2024/03/14 01:32:55;;;;;;;13.43;5.63;;;;;;;9.84;100.00;96306.81;5019391;28;20707;-69
2024/03/14 01:35:23;;;;;;;13.30;5.90;;;;;;;9.91;100.00;96302.50;5016892;28;20232;-69
2024/03/14 01:37:50;;;;;;;10.67;5.47;;;;;;;10.00;100.00;96301.50;5019752;28;20216;-68
2024/03/14 01:40:17;;;;;;;15.23;6.73;;;;;;;10.10;100.00;96301.31;5018094;28;20212;-69
2024/03/14 01:42:44;;;;;;;14.00;6.23;;;;;;;10.18;100.00;96304.69;5018727;28;20205;-69
2024/03/14 01:45:10;;;;;;;12.67;5.30;;;;;;;10.20;100.00;96302.72;5020015;28;20225;-68
2024/03/14 01:47:37;;;;;;;11.90;5.00;;;;;;;10.18;100.00;96294.16;5017583;28;20212;-69
2024/03/14 01:50:05;;;;;;;12.93;5.73;;;;;;;10.17;100.00;96289.91;5021435;28;20572;-69
2024/03/14 01:52:34;;;;;;;12.53;5.80;;;;;;;10.23;100.00;96289.19;5017753;28;20202;-69
2024/03/14 01:55:00;;;;;;;16.47;6.07;;;;;;;10.23;100.00;96281.31;5017952;28;20225;-69
2024/03/14 01:57:27;;;;;;;12.70;5.73;;;;;;;10.26;100.00;96280.97;5019091;28;20216;-69
2024/03/14 01:59:58;;;;;;;16.00;6.73;;;;;;;10.27;100.00;96271.25;5022424;28;20678;-69
2024/03/14 02:02:24;;;;;;;13.80;6.27;;;;;;;10.29;100.00;96269.28;5018560;28;20245;-69
2024/03/14 02:04:52;;;;;;;14.17;5.93;;;;;;;10.27;100.00;96264.16;5017599;28;20584;-69
2024/03/14 02:07:19;;;;;;;15.30;6.17;;;;;;;10.26;100.00;96262.53;5018777;28;20626;-68
2024/03/14 02:09:46;;;;;;;14.77;6.53;;;;;;;10.26;100.00;96269.59;5019013;28;20240;-69
2024/03/14 02:12:12;;;;;;;15.50;6.03;;;;;;;10.21;100.00;96270.16;5017714;28;20205;-68
2024/03/14 02:14:39;;;;;;;14.23;5.80;;;;;;;10.18;100.00;96282.81;5017514;28;20225;-68
2024/03/14 02:17:05;;;;;;;15.40;6.90;;;;;;;10.29;100.00;96274.53;5016877;28;20773;-68
2024/03/14 02:19:32;;;;;;;16.07;6.90;;;;;;;10.28;100.00;96270.25;5017096;28;20237;-69
2024/03/14 02:21:59;;;;;;;14.73;6.17;;;;;;;10.08;100.00;96269.91;5017862;28;20205;-68
2024/03/14 02:24:26;;;;;;;15.60;6.00;;;;;;;9.90;100.00;96279.00;5017429;28;20224;-69
2024/03/14 02:26:53;;;;;;;17.70;6.10;;;;;;;10.16;100.00;96269.84;5016667;28;20572;-69
2024/03/14 02:29:19;;;;;;;18.13;5.63;;;;;;;10.17;100.00;96268.00;5022044;28;20211;-69
2024/03/14 02:31:46;;;;;;;19.53;6.70;;;;;;;10.15;100.00;96262.13;5020962;28;20551;-69
2024/03/14 02:34:13;;;;;;;16.60;6.10;;;;;;;10.11;100.00;96266.09;5022581;28;20233;-69
2024/03/14 02:36:39;;;;;;;16.07;6.33;;;;;;;10.16;100.00;96258.50;5029451;28;20205;-69
2024/03/14 02:39:07;;;;;;;18.20;6.23;;;;;;;10.10;100.00;96254.72;5021144;28;20668;-68
2024/03/14 02:41:34;;;;;;;16.37;6.33;;;;;;;10.03;100.00;96247.69;5024011;28;20508;-69
2024/03/14 02:44:00;;;;;;;19.63;7.10;;;;;;;10.12;100.00;96250.13;5027487;28;20228;-69
2024/03/14 02:46:27;;;;;;;18.70;6.37;;;;;;;10.02;100.00;96249.50;5019969;28;20774;-68
2024/03/14 02:48:54;;;;;;;19.07;6.97;;;;;;;9.99;100.00;96251.66;5020723;28;20201;-69
2024/03/14 02:51:21;;;;;;;15.67;5.87;;;;;;;10.01;100.00;96260.22;5021225;28;20378;-69
2024/03/14 02:53:48;;;;;;;16.37;5.60;;;;;;;9.85;100.00;96253.19;5020537;28;20237;-69
2024/03/14 02:56:14;;;;;;;15.23;5.97;;;;;;;9.88;100.00;96244.16;5019854;28;20392;-69
2024/03/14 02:58:41;;;;;;;19.60;7.13;;;;;;;9.89;100.00;96246.59;5020499;28;20633;-69
2024/03/14 03:01:09;;;;;;;20.93;6.53;;;;;;;9.63;100.00;96247.88;5020787;28;20690;-68
2024/03/14 03:06:03;;;;;;;21.80;6.80;;;;;;;9.82;100.00;96243.00;5108009;27;21086;-69
2024/03/14 03:08:31;;;;;;;18.20;6.23;;;;;;;9.64;100.00;96243.44;5075289;28;20207;-69
2024/03/14 03:10:57;;;;;;;22.17;6.53;;;;;;;9.68;100.00;96247.38;5074966;28;20213;-68
2024/03/14 03:13:24;;;;;;;26.13;7.33;;;;;;;9.84;100.00;96242.84;5074883;28;20210;-69
2024/03/14 03:15:51;;;;;;;22.77;5.70;;;;;;;9.78;100.00;96246.97;5052611;28;20236;-69
2024/03/14 03:18:17;;;;;;;25.50;7.00;;;;;;;9.56;100.00;96238.19;5054247;28;20196;-69
2024/03/14 03:20:44;;;;;;;20.70;6.80;;;;;;;9.78;100.00;96228.53;5054665;28;20214;-69
2024/03/14 03:23:09;;;;;;;21.53;6.90;;;;;;;9.75;100.00;96231.53;5055868;28;20211;-69
2024/03/14 03:25:36;;;;;;;23.73;7.23;;;;;;;9.76;100.00;96233.19;5053289;28;20228;-69
2024/03/14 03:28:02;;;;;;;19.73;6.43;;;;;;;9.60;100.00;96228.97;5054516;28;20511;-69
2024/03/14 03:30:29;;;;;;;17.97;6.50;;;;;;;9.28;100.00;96223.84;5054058;28;20204;-69
2024/03/14 03:32:54;;;;;;;21.80;6.13;;;;;;;9.60;100.00;96228.97;5054696;28;20211;-69
2024/03/14 03:35:21;;;;;;;23.67;6.30;;;;;;;9.57;100.00;96216.16;5053896;28;20588;-69
2024/03/14 03:37:47;;;;;;;15.17;5.47;;;;;;;9.18;100.00;96224.03;5054251;28;20204;-69
2024/03/14 03:40:15;;;;;;;16.40;6.23;;;;;;;9.58;100.00;96209.91;5054576;28;20280;-69
2024/03/14 03:42:42;;;;;;;19.57;6.03;;;;;;;9.50;100.00;96207.34;5054385;28;20739;-69
2024/03/14 03:45:09;;;;;;;15.13;5.63;;;;;;;9.36;100.00;96206.22;5053450;28;20394;-69
2024/03/14 03:47:36;;;;;;;15.83;5.93;;;;;;;9.36;100.00;96208.03;5054368;28;20270;-69
2024/03/14 03:50:03;;;;;;;15.20;6.03;;;;;;;9.55;100.00;96205.00;5054209;28;20208;-69
2024/03/14 03:52:31;;;;;;;20.37;6.03;;;;;;;9.66;100.00;96207.25;5054130;28;20200;-69
2024/03/14 03:54:58;;;;;;;16.10;6.10;;;;;;;9.72;100.00;96210.00;5054447;28;20220;-68
2024/03/14 03:57:24;;;;;;;21.87;6.93;;;;;;;9.80;100.00;96209.94;5053080;28;20208;-69
2024/03/14 03:59:50;;;;;;;17.73;6.30;;;;;;;9.74;100.00;96200.94;5053759;28;20207;-69
2024/03/14 04:02:18;;;;;;;18.07;7.00;;;;;;;9.50;100.00;96213.41;5054122;28;20572;-69
2024/03/14 04:04:44;;;;;;;22.10;5.70;;;;;;;9.53;100.00;96210.41;5053995;28;20247;-68
2024/03/14 04:07:14;;;;;;;16.87;5.87;;;;;;;9.56;100.00;96211.88;5052810;28;20346;-69
2024/03/14 04:09:44;;;;;;;25.40;6.73;;;;;;;9.61;100.00;96217.44;5053829;28;20931;-69
2024/03/14 04:12:11;;;;;;;16.83;5.83;;;;;;;9.61;100.00;96209.56;5053972;28;20207;-68
2024/03/14 04:14:40;;;;;;;15.23;5.67;;;;;;;9.74;100.00;96206.22;5053452;28;20224;-69
2024/03/14 04:17:07;;;;;;;18.80;6.87;;;;;;;9.76;100.00;96209.50;5042196;28;20263;-69
2024/03/14 04:19:34;;;;;;;23.23;6.57;;;;;;;9.87;100.00;96206.47;5040705;28;20200;-69
2024/03/14 04:22:01;;;;;;;18.17;6.50;;;;;;;9.92;100.00;96221.75;5040043;28;20208;-69
2024/03/14 04:24:28;;;;;;;13.73;5.40;;;;;;;9.84;100.00;96222.59;5040399;28;20515;-69
2024/03/14 04:26:55;;;;;;;28.53;5.77;;;;;;;9.79;100.00;96227.56;5040092;28;20208;-69
2024/03/14 04:29:22;;;;;;;16.07;5.80;;;;;;;9.89;100.00;96222.91;5039442;28;20205;-69
2024/03/14 04:31:49;;;;;;;17.43;6.80;;;;;;;9.73;100.00;96219.53;5040231;28;20213;-69
2024/03/14 04:34:17;;;;;;;20.63;5.67;;;;;;;9.75;100.00;96228.91;5041456;28;20228;-69
2024/03/14 04:36:45;;;;;;;12.53;4.83;;;;;;;9.82;100.00;96229.84;5039194;28;20205;-69
2024/03/14 04:39:13;;;;;;;17.17;5.60;;;;;;;9.75;100.00;96228.91;5039912;28;20208;-69
2024/03/14 04:41:39;;;;;;;19.33;5.87;;;;;;;9.66;100.00;96228.28;5040096;28;20208;-69
2024/03/14 04:44:07;;;;;;;18.30;5.90;;;;;;;9.39;100.00;96247.13;5040379;28;20459;-69
2024/03/14 04:46:33;;;;;;;16.03;5.03;;;;;;;9.43;100.00;96235.28;5039275;28;20284;-69
2024/03/14 04:49:00;;;;;;;16.77;4.80;;;;;;;9.48;100.00;96240.84;5040414;28;20633;-69
2024/03/14 04:51:30;;;;;;;15.30;4.97;;;;;;;9.43;100.00;96249.28;5039905;28;20208;-69
2024/03/14 04:53:58;;;;;;;15.80;5.23;;;;;;;9.55;100.00;96247.09;5039743;28;20233;-69
2024/03/14 04:56:24;;;;;;;21.80;5.60;;;;;;;9.56;100.00;96243.44;5039367;28;20205;-69
2024/03/14 04:58:51;;;;;;;17.43;5.97;;;;;;;9.51;100.00;96246.59;5039812;28;20224;-69
2024/03/14 05:01:18;;;;;;;17.77;5.93;;;;;;;9.66;100.00;96239.66;5039625;28;20344;-69
2024/03/14 05:03:44;;;;;;;19.73;6.00;;;;;;;9.67;100.00;96240.47;5039019;28;20206;-69
2024/03/14 05:06:11;;;;;;;14.83;4.67;;;;;;;9.72;100.00;96234.53;5038834;28;20973;-69
2024/03/14 05:08:37;;;;;;;23.17;5.93;;;;;;;9.73;100.00;96232.69;5039077;28;20235;-69
2024/03/14 05:11:04;;;;;;;20.40;5.43;;;;;;;9.65;100.00;96231.91;5039466;28;20201;-69
2024/03/14 05:13:31;;;;;;;19.37;4.87;;;;;;;9.27;100.00;96248.50;5039386;28;20553;-69
2024/03/14 05:15:58;;;;;;;16.87;5.33;;;;;;;9.43;100.00;96245.81;5038831;28;20200;-69
2024/03/14 05:18:25;;;;;;;17.53;5.17;;;;;;;9.49;100.00;96255.66;5039232;28;20701;-69
2024/03/14 05:20:53;;;;;;;18.60;5.20;;;;;;;9.63;100.00;96247.88;5039201;28;21119;-69
2024/03/14 05:23:21;;;;;;;17.73;5.43;;;;;;;9.37;100.00;96249.13;5039144;28;20201;-69
2024/03/14 05:25:47;;;;;;;16.73;6.03;;;;;;;9.57;100.00;96242.47;5038243;28;20220;-69
2024/03/14 05:28:16;;;;;;;21.50;7.27;;;;;;;9.65;100.00;96242.44;5038177;28;20291;-69
2024/03/14 05:30:43;;;;;;;20.50;6.33;;;;;;;9.74;100.00;96243.03;5038599;28;20471;-69
2024/03/14 05:33:09;;;;;;;22.53;5.93;;;;;;;9.70;100.00;96246.22;5039146;28;20204;-69
2024/03/14 05:35:36;;;;;;;18.67;6.30;;;;;;;9.33;100.00;96243.38;5038606;28;20220;-69
2024/03/14 05:38:04;;;;;;;24.43;5.87;;;;;;;9.20;100.00;96240.47;5039533;28;20201;-69
2024/03/14 05:40:30;;;;;;;29.17;6.03;;;;;;;9.35;100.00;96246.66;5039347;28;20327;-69
2024/03/14 05:42:57;;;;;;;19.07;6.53;;;;;;;9.50;100.00;96238.91;5040392;28;20215;-70
2024/03/14 05:45:23;;;;;;;24.90;6.83;;;;;;;9.50;100.00;96238.91;5039039;28;20235;-70
2024/03/14 05:47:51;;;;;;;26.33;7.07;;;;;;;9.62;100.00;96232.25;5039132;28;20205;-71
2024/03/14 05:50:17;;;;;;;36.60;12.73;;;;;;;9.68;100.00;96236.84;5039682;28;20205;-69
2024/03/14 05:52:47;;;;;;;23.43;6.83;;;;;;;9.64;100.00;96235.56;5039536;28;21000;-69
2024/03/14 05:55:14;;;;;;;19.90;5.70;;;;;;;9.71;100.00;96237.28;5038736;28;20337;-69
2024/03/14 05:57:40;;;;;;;22.70;7.90;;;;;;;9.66;100.00;96231.75;5039147;28;20212;-69
2024/03/14 06:00:09;;;;;;;19.87;7.17;;;;;;;9.55;100.00;96234.75;5039503;28;20225;-69
2024/03/14 06:02:36;;;;;;;32.33;13.30;;;;;;;9.09;100.00;96255.78;5038964;28;20204;-68
2024/03/14 06:05:03;;;;;;;29.53;10.43;;;;;;;9.19;100.00;96246.72;5038958;28;20500;-68
2024/03/14 06:07:29;;;;;;;24.97;8.13;;;;;;;9.26;100.00;96249.47;5038474;28;20805;-68
2024/03/14 06:09:56;;;;;;;19.67;5.93;;;;;;;9.36;100.00;96252.75;5038993;28;20227;-68
2024/03/14 06:12:23;;;;;;;19.33;6.23;;;;;;;9.44;100.00;96244.81;5038608;28;20204;-68
2024/03/14 06:14:49;;;;;;;27.50;8.20;;;;;;;9.36;100.00;96252.75;5038718;28;20212;-68
2024/03/14 06:17:17;;;;;;;26.97;6.30;;;;;;;9.40;100.00;96254.03;5038056;28;20698;-67
2024/03/14 06:19:46;;;;;;;30.57;7.80;;;;;;;9.44;100.00;96250.09;5038230;28;20208;-68
2024/03/14 06:22:14;;;;;;;21.13;5.70;;;;;;;9.39;100.00;96252.41;5038949;28;20525;-69
2024/03/14 06:24:43;;;;;;;23.93;8.63;;;;;;;9.28;100.00;96260.66;5039257;28;20227;-68
2024/03/14 06:27:10;;;;;;;20.40;7.03;;;;;;;9.35;100.00;96254.53;5038508;28;20204;-68
2024/03/14 06:29:37;;;;;;;36.70;10.00;;;;;;;9.08;100.00;96254.13;5038332;28;20215;-68
2024/03/14 06:32:04;;;;;;;49.13;12.63;;;;;;;9.10;100.00;96252.97;5038653;28;20236;-68
2024/03/14 06:34:31;;;;;;;33.37;10.50;;;;;;;9.16;100.00;96259.34;5038414;28;20270;-68
2024/03/14 06:36:58;;;;;;;31.73;10.20;;;;;;;9.31;100.00;96249.81;5037627;28;20252;-68
2024/03/14 06:39:25;;;;;;;26.70;8.80;;;;;;;8.98;100.00;96257.94;5038755;28;20243;-68
2024/03/14 06:41:52;;;;;;;37.03;10.27;;;;;;;9.11;100.00;96254.63;5038476;28;20220;-69
2024/03/14 06:44:19;;;;;;;26.83;8.63;;;;;;;9.07;100.00;96257.75;5037948;28;20256;-68
2024/03/14 06:46:45;;;;;;;25.07;8.30;;;;;;;9.10;100.00;96254.78;5037729;28;20225;-68
2024/03/14 06:49:13;;;;;;;24.40;6.63;;;;;;;9.13;100.00;96262.34;5038633;28;20215;-68
2024/03/14 06:51:41;;;;;;;20.70;6.23;;;;;;;9.26;100.00;96245.03;5038765;28;20205;-69
2024/03/14 06:54:09;;;;;;;16.00;5.53;;;;;;;9.37;100.00;96239.41;5038242;28;20232;-68
2024/03/14 06:56:35;;;;;;;21.40;7.23;;;;;;;9.51;100.00;96243.13;5037531;28;20207;-68
2024/03/14 06:59:02;;;;;;;14.00;5.13;;;;;;;9.51;100.00;96245.78;5038697;28;20235;-68
2024/03/14 07:01:31;;;;;;;15.20;5.23;;;;;;;9.54;100.00;96245.44;5038742;28;20215;-68
2024/03/14 07:03:57;;;;;;;21.37;6.33;;;;;;;9.54;100.00;96237.56;5037533;28;21104;-68
2024/03/14 07:06:26;;;;;;;32.00;8.43;;;;;;;9.67;100.00;96236.00;5037929;28;20228;-68
2024/03/14 07:08:56;;;;;;;24.90;8.00;;;;;;;9.33;100.00;96239.91;5039118;28;20693;-69
2024/03/14 07:11:23;;;;;;;27.60;8.17;;;;;;;9.62;100.00;96237.53;5039423;28;20247;-68
2024/03/14 07:13:50;;;;;;;22.30;6.80;;;;;;;9.89;100.00;96245.75;5037776;28;20286;-69
2024/03/14 07:16:17;;;;;;;18.30;4.90;;;;;;;9.82;100.00;96250.09;5037557;28;20201;-68
2024/03/14 07:18:45;;;;;;;18.33;6.27;;;;;;;9.73;100.00;96238.75;5038673;28;20197;-68
2024/03/14 07:21:12;;;;;;;16.40;5.27;;;;;;;9.66;100.00;96244.06;5038713;28;20207;-70
2024/03/14 07:23:39;;;;;;;22.23;6.93;;;;;;;9.68;100.00;96248.19;5037703;28;20205;-70
2024/03/14 07:26:05;;;;;;;24.67;7.97;;;;;;;9.88;100.00;96244.16;5037683;28;20221;-70
2024/03/14 07:28:32;;;;;;;14.40;5.07;;;;;;;9.99;100.00;96252.50;5038069;28;20678;-70
2024/03/14 07:30:59;;;;;;;15.63;5.13;;;;;;;10.08;100.00;96253.25;5037803;28;20671;-70
2024/03/14 07:33:26;;;;;;;14.60;4.77;;;;;;;9.97;100.00;96256.31;5038303;28;20285;-70
2024/03/14 07:35:54;;;;;;;14.73;5.33;;;;;;;10.00;100.00;96258.56;5037024;28;20220;-70
2024/03/14 07:38:27;;;;;;;16.43;5.40;;;;;;;10.21;100.00;96262.25;5038735;28;20211;-70
2024/03/14 07:40:54;;;;;;;12.73;4.47;;;;;;;10.01;100.00;96261.03;5039030;28;20323;-70
2024/03/14 07:43:21;;;;;;;15.77;6.10;;;;;;;10.01;100.00;96258.41;5038293;28;20251;-70
2024/03/14 07:45:47;;;;;;;16.30;5.87;;;;;;;10.14;100.00;96263.91;5034030;28;20266;-70
2024/03/14 07:48:17;;;;;;;12.57;4.97;;;;;;;10.28;100.00;96260.53;5036803;28;20204;-69
2024/03/14 07:50:44;;;;;;;16.30;5.03;;;;;;;10.16;100.00;96266.41;5036386;28;20211;-69
2024/03/14 07:53:12;;;;;;;13.57;5.33;;;;;;;10.37;100.00;96262.97;5040486;28;20204;-70
2024/03/14 07:55:39;;;;;;;12.83;4.40;;;;;;;10.35;100.00;96270.22;5039673;28;21162;-70
2024/03/14 07:58:05;;;;;;;16.00;4.97;;;;;;;10.23;100.00;96269.97;5040449;28;20209;-70
2024/03/14 08:00:33;;;;;;;12.93;4.03;;;;;;;10.39;100.00;96265.41;5042126;28;20204;-68
2024/03/14 08:03:01;;;;;;;11.60;4.73;;;;;;;9.98;100.00;96258.75;5057927;28;20212;-68
2024/03/14 08:05:31;;;;;;;14.10;5.10;;;;;;;9.80;100.00;96263.41;5039233;28;20954;-68
2024/03/14 08:07:59;;;;;;;13.60;5.27;;;;;;;10.02;100.00;96267.13;5040443;28;20325;-68
2024/03/14 08:10:28;;;;;;;13.90;4.90;;;;;;;10.49;100.00;96261.56;5040307;28;20215;-69
2024/03/14 08:12:56;;;;;;;15.10;5.13;;;;;;;10.52;100.00;96260.38;5040240;28;20205;-68
2024/03/14 08:15:30;;;;;;;13.57;4.57;;;;;;;10.62;100.00;96264.41;5039525;28;20228;-68
2024/03/14 08:17:59;;;;;;;12.17;4.57;;;;;;;10.08;100.00;96259.38;5040384;28;20207;-68
2024/03/14 08:20:26;;;;;;;11.87;4.43;;;;;;;10.28;100.00;96267.63;5040268;28;20290;-68
2024/03/14 08:22:52;;;;;;;12.60;5.23;;;;;;;10.54;100.00;96266.31;5040276;28;20223;-69
2024/03/14 08:25:19;;;;;;;9.90;4.50;;;;;;;10.79;100.00;96262.47;5038401;28;20310;-70
2024/03/14 08:27:47;;;;;;;14.57;5.10;;;;;;;10.86;100.00;96266.03;5038629;28;20227;-68
2024/03/14 08:30:15;;;;;;;11.80;4.63;;;;;;;10.94;100.00;96261.50;5040681;28;20197;-68
2024/03/14 08:32:43;;;;;;;11.50;4.50;;;;;;;11.27;100.00;96274.19;5038851;28;20204;-68
2024/03/14 08:35:10;;;;;;;10.83;4.17;;;;;;;11.36;100.00;96259.13;5038801;28;21150;-67
2024/03/14 08:37:37;;;;;;;14.07;4.97;;;;;;;10.87;100.00;96265.88;5039419;28;20283;-68
2024/03/14 08:40:05;;;;;;;13.57;4.70;;;;;;;11.45;100.00;96263.31;5039689;28;21054;-68
2024/03/14 08:42:32;;;;;;;11.20;4.37;;;;;;;11.37;100.00;96263.41;5038977;28;20212;-69
2024/03/14 08:45:00;;;;;;;11.20;4.63;;;;;;;11.18;100.00;96264.72;5038751;28;20243;-68
2024/03/14 08:47:27;;;;;;;8.67;3.93;;;;;;;11.33;100.00;96262.94;5037928;28;20224;-69
2024/03/14 08:49:53;;;;;;;13.77;5.50;;;;;;;11.70;100.00;96261.06;5038951;28;20209;-68
2024/03/14 08:52:21;;;;;;;11.43;4.40;;;;;;;11.54;100.00;96260.41;5037989;28;20211;-68
2024/03/14 08:54:48;;;;;;;11.17;4.37;;;;;;;11.48;100.00;96258.50;5039090;28;20228;-68
2024/03/14 08:57:15;;;;;;;6.93;2.90;;;;;;;11.29;100.00;96258.19;5038102;28;20203;-68
2024/03/14 08:59:42;;;;;;;6.90;3.40;;;;;;;11.54;100.00;96255.13;5038484;28;20249;-67
2024/03/14 09:02:09;;;;;;;9.10;4.13;;;;;;;11.85;100.00;96258.38;5038189;28;20754;-67
2024/03/14 09:04:36;;;;;;;8.87;3.67;;;;;;;11.96;100.00;96261.38;5038587;28;20258;-67
2024/03/14 09:07:03;;;;;;;6.50;3.30;;;;;;;11.86;100.00;96254.75;5037243;28;20216;-67
2024/03/14 09:09:34;;;;;;;7.67;3.60;;;;;;;11.71;100.00;96262.69;5038508;28;20196;-68
2024/03/14 09:12:13;;;;;;;9.47;4.33;;;;;;;11.97;100.00;96262.22;5039051;28;20261;-68
2024/03/14 09:14:40;;;;;;;9.87;4.03;;;;;;;11.70;100.00;96265.53;5039744;28;20220;-68
2024/03/14 09:17:07;;;;;;;9.43;3.50;;;;;;;11.96;100.00;96261.38;5038349;28;20196;-68
2024/03/14 09:19:34;;;;;;;9.23;4.47;;;;;;;11.97;100.00;96262.22;5038491;28;20204;-68
2024/03/14 09:22:01;;;;;;;10.63;4.20;;;;;;;12.33;100.00;96261.22;5037969;28;20215;-67
2024/03/14 09:24:27;;;;;;;9.00;4.20;;;;;;;12.39;100.00;96256.00;5038322;28;20279;-67
2024/03/14 09:26:55;;;;;;;6.90;3.73;;;;;;;12.83;100.00;96259.28;5037675;28;20225;-68
2024/03/14 09:29:23;;;;;;;8.50;4.23;;;;;;;12.47;100.00;96261.16;5037383;28;20208;-68
2024/03/14 09:31:49;;;;;;;8.27;4.00;;;;;;;12.43;100.00;96253.81;5038147;28;20282;-67
2024/03/14 09:34:17;;;;;;;7.93;3.90;;;;;;;11.88;100.00;96258.84;5038816;28;20232;-69
2024/03/14 09:36:44;;;;;;;7.47;3.10;;;;;;;12.55;100.00;96260.22;5037594;28;20201;-69
2024/03/14 09:39:19;;;;;;;5.13;2.90;;;;;;;12.57;100.00;96266.94;5038465;28;20211;-69
2024/03/14 09:41:47;;;;;;;7.67;3.83;;;;;;;12.34;100.00;96265.50;5038844;28;20250;-69
2024/03/14 09:44:14;;;;;;;7.83;3.47;;;;;;;12.38;100.00;96257.00;5038100;28;20274;-69
2024/03/14 09:46:42;;;;;;;5.67;3.07;;;;;;;12.50;100.00;96262.59;5036500;28;20736;-70
2024/03/14 09:49:11;;;;;;;8.30;3.93;;;;;;;12.52;100.00;96253.47;5037926;28;20247;-69
2024/03/14 09:51:38;;;;;;;6.97;3.00;;;;;;;11.93;100.00;96251.19;5038153;28;20692;-67
2024/03/14 09:54:05;;;;;;;8.43;3.60;;;;;;;12.39;100.00;96258.63;5053605;28;20220;-68
2024/03/14 09:56:31;;;;;;;6.77;3.40;;;;;;;12.75;100.00;96264.69;5037421;28;20223;-68
2024/03/14 09:58:58;;;;;;;5.40;3.23;;;;;;;12.93;100.00;96262.44;5036722;28;20204;-68
2024/03/14 10:01:26;;;;;;;5.40;2.90;;;;;;;12.79;100.00;96255.38;5037725;28;20218;-68
2024/03/14 10:03:53;;;;;;;6.00;2.93;;;;;;;12.74;100.00;96251.66;5037409;28;20790;-68
2024/03/14 10:06:20;;;;;;;5.77;3.23;;;;;;;13.13;100.00;96252.84;5037349;28;20233;-68
2024/03/14 10:08:47;;;;;;;8.37;3.30;;;;;;;12.98;100.00;96260.03;5037414;28;20679;-68
2024/03/14 10:11:14;;;;;;;6.07;2.80;;;;;;;13.02;100.00;96254.19;5037650;28;20289;-67
2024/03/14 10:13:41;;;;;;;6.47;3.33;;;;;;;13.02;100.00;96251.56;5036815;28;20229;-67
2024/03/14 10:16:07;;;;;;;5.67;2.93;;;;;;;13.00;100.00;96250.91;5036730;28;20739;-68
2024/03/14 10:18:34;;;;;;;5.80;3.10;;;;;;;13.28;100.00;96250.94;5037132;28;20232;-67
2024/03/14 10:21:04;;;;;;;6.80;2.90;;;;;;;13.52;100.00;96240.72;5037381;28;20984;-67
2024/03/14 10:23:31;;;;;;;8.23;3.03;;;;;;;13.25;100.00;96240.72;5036389;28;20254;-67
2024/03/14 10:25:57;;;;;;;7.57;3.70;;;;;;;13.42;100.00;96238.38;5036499;28;20216;-68
2024/03/14 10:28:28;;;;;;;5.90;2.97;;;;;;;13.20;100.00;96229.88;5037644;28;20311;-68
2024/03/14 10:30:57;;;;;;;6.33;2.77;;;;;;;13.74;100.00;96221.88;5037692;28;20205;-67
2024/03/14 10:33:26;;;;;;;7.17;3.00;;;;;;;13.71;100.00;96230.22;5038036;28;20197;-68
2024/03/14 10:35:55;;;;;;;4.90;2.53;;;;;;;13.67;100.00;96217.56;5038504;28;20212;-68
2024/03/14 10:38:23;;;;;;;4.27;2.37;;;;;;;13.91;100.00;96211.75;5038646;28;20389;-68
2024/03/14 10:43:13;;;;;;;5.47;2.70;;;;;;;14.03;100.00;96217.09;5103682;27;20496;-68
2024/03/14 10:45:41;;;;;;;7.73;3.07;;;;;;;14.01;100.00;96213.03;5053697;28;20242;-69
2024/03/14 10:48:08;;;;;;;6.37;2.93;;;;;;;14.05;100.00;96212.44;5053717;28;20188;-69
2024/03/14 10:50:36;;;;;;;7.00;3.30;;;;;;;14.44;100.00;96215.22;5059036;28;20257;-69
2024/03/14 10:53:05;;;;;;;5.33;2.73;;;;;;;14.56;100.00;96213.63;5054517;28;20196;-69
2024/03/14 10:55:32;;;;;;;5.88;3.33;;;;;;;15.24;100.00;96214.88;5056103;28;20320;-68
2024/03/14 10:57:59;;;;;;;5.65;2.80;;;;;;;15.62;100.00;96213.19;5059316;28;20275;-68
2024/03/14 11:00:25;;;;;;;5.63;2.60;;;;;;;15.43;100.00;96210.59;5056118;28;20204;-68
2024/03/14 11:02:53;;;;;;;7.65;3.38;;;;;;;15.47;100.00;96201.19;5053032;28;20216;-68
2024/03/14 11:05:22;;;;;;;5.85;3.05;;;;;;;15.51;100.00;96208.50;5054064;28;20219;-69
2024/03/14 11:07:51;;;;;;;4.50;2.25;;;;;;;15.24;100.00;96206.13;5065785;28;20252;-69
2024/03/14 11:10:18;;;;;;;6.38;3.10;;;;;;;15.57;100.00;96204.22;5059296;28;20700;-69
2024/03/14 11:12:47;;;;;;;4.38;2.35;;;;;;;16.00;100.00;96201.63;5053113;28;20200;-69
2024/03/14 11:15:16;;;;;;;5.03;2.35;;;;;;;15.89;100.00;96194.28;5053014;28;20230;-68
2024/03/14 11:17:43;;;;;;;4.63;2.70;;;;;;;15.55;100.00;96198.28;5057939;28;20228;-68
2024/03/14 11:20:10;;;;;;;8.20;2.17;;;;;;;15.97;100.00;96188.75;5053432;28;20261;-69
2024/03/14 11:22:37;;;;;;;3.40;1.88;;;;;;;16.47;100.00;96184.41;5053533;28;20324;-69
2024/03/14 11:25:05;;;;;;;4.72;2.47;;;;;;;16.42;100.00;96181.59;5053595;28;20231;-68
2024/03/14 11:27:32;;;;;;;5.93;2.03;;;;;;;16.28;100.00;96182.69;5053015;28;20200;-68